Leiden, Netherlands
Current Conditions -  °F | °C
As of 12:55 PM on Friday 19 Dec 2014 (Local Time) from EHRD Reporting Station
Few Clouds Few Clouds  
Wind Chill: 43°   Ceiling: Unl
Heat Index: 48°   Visibility: 6mi
Dew Point: 39°   Wind: 14mph
Humidity: 71%   Direction: 280°W
Pressure: 29.85"   Gusts: NA
Location:  52.15°N, 4.48°E
Report Text: EHRD 191155Z AUTO 28012KT 250V320 9999 FEW048 09/04 Q1011 BECMG29016G26KT
Loading
Personal Weather Stations






























Interactive Weather Map New forecast layout! Learn more

10-Day Weather Forecast

Advertisements
Track Severe Weather on mobile